createdAt,value
2022-11-24T00:01:08.108Z,34.35
2022-11-24T00:02:40.038Z,32.90
2022-11-24T00:04:12.121Z,32.08
2022-11-24T00:05:44.137Z,34.58
2022-11-24T00:07:15.961Z,32.88
2022-11-24T00:08:47.990Z,30.83
2022-11-24T00:10:19.716Z,35.10
2022-11-24T00:11:51.441Z,36.17
2022-11-24T00:13:23.295Z,34.63
2022-11-24T00:14:55.400Z,38.17
2022-11-24T00:16:29.493Z,35.63
2022-11-24T00:18:01.256Z,34.13
2022-11-24T00:19:32.956Z,33.63
2022-11-24T00:21:05.151Z,33.03
2022-11-24T00:22:36.869Z,30.92
2022-11-24T00:24:10.314Z,29.98
2022-11-24T00:25:42.024Z,30.13
2022-11-24T00:27:13.806Z,30.42
2022-11-24T00:28:47.683Z,29.67
2022-11-24T00:30:19.425Z,31.13
2022-11-24T00:31:51.139Z,33.05
2022-11-24T00:33:22.865Z,31.10
2022-11-24T00:34:54.613Z,31.10
2022-11-24T00:36:29.350Z,31.08
2022-11-24T00:38:01.116Z,32.40
2022-11-24T00:39:32.824Z,31.25
2022-11-24T00:41:04.648Z,31.27
2022-11-24T00:42:36.386Z,32.25
2022-11-24T00:44:08.232Z,31.35
2022-11-24T00:45:40.029Z,35.13
2022-11-24T00:47:12.004Z,33.80
2022-11-24T00:48:43.962Z,35.30
2022-11-24T00:50:16.010Z,36.17
2022-11-24T00:51:47.754Z,35.33
2022-11-24T00:53:19.486Z,38.13
2022-11-24T00:54:51.205Z,37.17
2022-11-24T00:56:23.617Z,38.40
2022-11-24T00:57:55.347Z,32.97
2022-11-24T00:59:27.074Z,39.70
2022-11-24T01:01:07.313Z,34.05
2022-11-24T01:02:39.076Z,38.40
2022-11-24T01:04:10.846Z,40.30
2022-11-24T01:05:42.722Z,34.33
2022-11-24T01:07:14.587Z,34.85
2022-11-24T01:08:47.084Z,34.33
2022-11-24T01:10:18.980Z,32.70
2022-11-24T01:12:02.848Z,33.75
2022-11-24T01:13:34.695Z,31.98
2022-11-24T01:15:06.837Z,36.22
2022-11-24T01:16:38.891Z,34.17
2022-11-24T01:18:10.688Z,34.50
2022-11-24T01:19:42.885Z,39.15
2022-11-24T01:21:15.878Z,35.00
2022-11-24T01:22:51.179Z,34.08
2022-11-24T01:24:23.064Z,33.83
2022-11-24T01:25:54.801Z,34.38
2022-11-24T01:27:26.628Z,39.85
2022-11-24T01:28:59.058Z,35.00
2022-11-24T01:30:30.854Z,33.47
2022-11-24T01:32:02.643Z,33.55
2022-11-24T01:33:35.375Z,34.88
2022-11-24T01:35:07.689Z,35.85
2022-11-24T01:36:39.738Z,34.97
2022-11-24T01:38:11.456Z,35.75
2022-11-24T01:39:43.182Z,31.45
2022-11-24T01:41:23.828Z,35.45
2022-11-24T01:42:55.631Z,34.00
2022-11-24T01:44:29.869Z,35.55
2022-11-24T01:46:16.108Z,29.70
2022-11-24T01:47:47.999Z,30.85
2022-11-24T01:49:36.369Z,32.90
2022-11-24T01:51:22.490Z,34.88
2022-11-24T01:52:55.717Z,36.03
2022-11-24T01:54:36.181Z,35.38
2022-11-24T01:56:09.050Z,34.40
2022-11-24T01:57:51.164Z,35.72
2022-11-24T01:59:23.214Z,35.10
2022-11-24T02:00:55.268Z,33.00
2022-11-24T02:02:29.900Z,30.00
2022-11-24T02:04:05.634Z,30.08
2022-11-24T02:05:50.627Z,27.00
2022-11-24T02:07:22.510Z,28.42
2022-11-24T02:09:02.913Z,29.42
2022-11-24T02:10:35.924Z,26.25
2022-11-24T02:12:09.306Z,28.58
2022-11-24T02:13:43.576Z,29.42
2022-11-24T02:15:16.698Z,29.27
2022-11-24T02:16:50.716Z,28.63
2022-11-24T02:18:22.475Z,29.70
2022-11-24T02:19:57.543Z,26.70
2022-11-24T02:21:29.295Z,29.00
2022-11-24T02:23:24.456Z,27.90
2022-11-24T02:25:13.207Z,29.27
2022-11-24T02:26:47.728Z,26.55
2022-11-24T02:28:22.387Z,24.88
2022-11-24T02:29:54.199Z,25.42
2022-11-24T02:31:26.133Z,27.45
2022-11-24T02:32:58.188Z,26.88
2022-11-24T02:34:29.975Z,25.42
2022-11-24T02:36:01.759Z,26.63
2022-11-24T02:37:33.485Z,26.17
2022-11-24T02:39:13.021Z,27.02
2022-11-24T02:40:48.137Z,26.42
2022-11-24T02:42:20.096Z,27.83
2022-11-24T02:43:55.584Z,25.15
2022-11-24T02:45:28.553Z,24.27
2022-11-24T02:47:05.905Z,26.88
2022-11-24T02:48:38.225Z,24.23
2022-11-24T02:50:10.054Z,24.58
2022-11-24T02:51:41.944Z,24.08
2022-11-24T02:53:13.679Z,25.30
2022-11-24T02:54:45.440Z,26.75
2022-11-24T02:56:17.188Z,24.58
2022-11-24T02:57:49.373Z,25.55
2022-11-24T02:59:21.322Z,25.15
2022-11-24T03:00:54.520Z,25.75
2022-11-24T03:02:26.360Z,26.75
2022-11-24T03:03:58.116Z,26.60
2022-11-24T03:05:29.843Z,25.17
2022-11-24T03:07:01.719Z,27.10
2022-11-24T03:08:33.468Z,27.27
2022-11-24T03:10:05.810Z,27.92
2022-11-24T03:11:38.245Z,29.15
2022-11-24T03:13:10.392Z,27.88
2022-11-24T03:14:42.157Z,25.83
2022-11-24T03:16:13.997Z,24.50
2022-11-24T03:17:45.773Z,26.20
2022-11-24T03:19:17.531Z,27.52
2022-11-24T03:20:49.791Z,26.77
2022-11-24T03:22:21.521Z,25.40
2022-11-24T03:23:53.606Z,26.02
2022-11-24T03:25:25.429Z,26.83
2022-11-24T03:26:58.878Z,25.80
2022-11-24T03:28:30.606Z,27.25
2022-11-24T03:30:02.354Z,27.35
2022-11-24T03:31:34.341Z,26.95
2022-11-24T03:33:07.363Z,26.02
2022-11-24T03:34:39.290Z,27.75
2022-11-24T03:36:13.444Z,27.90
2022-11-24T03:37:45.228Z,29.27
2022-11-24T03:39:16.980Z,27.02
2022-11-24T03:40:48.787Z,26.67
2022-11-24T03:42:20.503Z,25.50
2022-11-24T03:43:52.242Z,25.98
2022-11-24T03:45:45.973Z,27.58
2022-11-24T03:51:50.844Z,17.25
2022-11-24T03:53:24.190Z,23.15
2022-11-24T03:54:55.897Z,24.90
2022-11-24T03:56:28.100Z,26.15
2022-11-24T03:58:00.091Z,27.73
2022-11-24T03:59:31.837Z,27.45
2022-11-24T04:01:03.722Z,30.00
2022-11-24T04:02:35.510Z,26.20
2022-11-24T04:04:07.236Z,28.75
2022-11-24T04:05:39.152Z,29.88
2022-11-24T04:07:10.915Z,28.90
2022-11-24T04:08:42.721Z,30.48
2022-11-24T04:10:14.475Z,29.75
2022-11-24T04:12:04.688Z,34.20
2022-11-24T04:13:36.491Z,28.65
2022-11-24T04:15:08.782Z,35.05
2022-11-24T04:16:40.601Z,34.72
2022-11-24T04:18:13.586Z,35.40
2022-11-24T04:19:45.436Z,36.75
2022-11-24T04:21:17.172Z,32.72
2022-11-24T04:22:50.828Z,30.38
2022-11-24T04:24:22.633Z,32.40
2022-11-24T04:25:54.347Z,30.50
2022-11-24T04:27:26.088Z,35.03
2022-11-24T04:28:57.808Z,32.95
2022-11-24T04:30:29.860Z,32.28
2022-11-24T04:32:01.727Z,31.63
2022-11-24T04:33:33.720Z,29.00
2022-11-24T04:35:05.805Z,30.15
2022-11-24T04:36:37.536Z,30.33
2022-11-24T04:38:09.423Z,31.55
2022-11-24T04:39:41.145Z,29.58
2022-11-24T04:41:12.853Z,31.90
2022-11-24T04:42:51.805Z,31.88
2022-11-24T04:44:23.612Z,29.40
2022-11-24T04:45:55.584Z,28.40
2022-11-24T04:47:27.796Z,30.30
2022-11-24T04:48:59.525Z,29.15
2022-11-24T04:50:31.467Z,32.20
2022-11-24T04:52:03.253Z,26.88
2022-11-24T04:53:35.046Z,26.25
2022-11-24T04:55:07.396Z,25.88
2022-11-24T04:56:40.288Z,25.90
2022-11-24T04:58:12.203Z,25.85
2022-11-24T04:59:44.275Z,26.10
2022-11-24T05:01:16.130Z,25.73
2022-11-24T05:02:47.987Z,26.15
2022-11-24T05:04:21.487Z,28.50
2022-11-24T05:05:53.272Z,26.48
2022-11-24T05:07:25.073Z,27.35
2022-11-24T05:08:56.863Z,25.05
2022-11-24T05:10:37.430Z,24.88
2022-11-24T05:12:09.165Z,26.80
2022-11-24T05:13:40.988Z,24.88
2022-11-24T05:15:12.710Z,27.30
2022-11-24T05:16:44.439Z,26.40
2022-11-24T05:18:16.722Z,24.77
2022-11-24T05:19:48.451Z,24.98
2022-11-24T05:21:20.160Z,23.52
2022-11-24T05:22:52.095Z,23.77
2022-11-24T05:24:23.808Z,25.08
2022-11-24T05:26:00.827Z,24.33
2022-11-24T05:27:32.582Z,25.55
2022-11-24T05:29:04.343Z,24.30
2022-11-24T05:30:40.228Z,25.08
2022-11-24T05:32:12.076Z,28.65
2022-11-24T05:33:43.817Z,24.90
2022-11-24T05:35:16.093Z,24.73
2022-11-24T05:36:53.507Z,25.42
2022-11-24T05:38:26.583Z,28.00
2022-11-24T05:39:58.315Z,27.48
2022-11-24T05:41:30.054Z,27.90
2022-11-24T05:43:01.863Z,30.42
2022-11-24T05:44:33.882Z,27.52
2022-11-24T05:46:05.943Z,26.95
2022-11-24T05:47:38.629Z,25.85
2022-11-24T05:49:10.369Z,24.63
2022-11-24T05:50:42.223Z,27.42
2022-11-24T05:52:14.048Z,26.95
2022-11-24T05:53:45.832Z,25.45
2022-11-24T05:55:19.681Z,26.98
2022-11-24T05:56:51.514Z,28.17
2022-11-24T05:58:23.296Z,28.27
2022-11-24T05:59:55.073Z,28.30
2022-11-24T06:01:26.852Z,29.00
2022-11-24T06:02:59.489Z,27.80
2022-11-24T06:04:31.932Z,27.67
2022-11-24T06:06:03.947Z,27.02
2022-11-24T06:07:35.938Z,29.92
2022-11-24T06:09:07.883Z,30.23
2022-11-24T06:10:39.632Z,25.95
2022-11-24T06:12:12.604Z,26.60
2022-11-24T06:13:45.565Z,25.35
2022-11-24T06:15:17.657Z,26.75
2022-11-24T06:16:49.461Z,26.63
2022-11-24T06:18:21.200Z,27.05
2022-11-24T06:19:53.000Z,26.13
2022-11-24T06:21:24.763Z,26.00
2022-11-24T06:23:00.268Z,26.73
2022-11-24T06:24:32.166Z,26.25
2022-11-24T06:26:04.543Z,24.35
2022-11-24T06:27:36.353Z,26.05
2022-11-24T06:29:08.575Z,25.27
2022-11-24T06:30:40.307Z,26.80
2022-11-24T06:32:12.171Z,24.90
2022-11-24T06:33:43.990Z,28.30
2022-11-24T06:35:15.886Z,27.33
2022-11-24T06:36:47.636Z,25.10
2022-11-24T06:38:24.179Z,26.77
2022-11-24T06:39:56.144Z,26.20
2022-11-24T06:41:27.976Z,24.83
2022-11-24T06:42:59.777Z,24.35
2022-11-24T06:44:31.632Z,24.17
2022-11-24T06:46:03.884Z,24.23
2022-11-24T06:47:35.853Z,25.42
2022-11-24T06:49:07.746Z,24.67
2022-11-24T06:50:39.476Z,23.98
2022-11-24T06:52:11.264Z,23.88
2022-11-24T06:53:42.992Z,22.85
2022-11-24T06:55:14.765Z,24.90
2022-11-24T06:56:46.779Z,23.90
2022-11-24T06:58:18.582Z,22.42
2022-11-24T06:59:50.449Z,23.58
2022-11-24T07:01:24.775Z,24.45
2022-11-24T07:02:56.953Z,23.88
2022-11-24T07:04:28.815Z,21.42
2022-11-24T07:06:00.684Z,22.73
2022-11-24T07:07:32.437Z,21.20
2022-11-24T07:09:04.237Z,20.33
2022-11-24T07:10:36.037Z,21.35
2022-11-24T07:12:07.840Z,18.85
2022-11-24T07:13:39.686Z,20.85
2022-11-24T07:15:11.985Z,18.73
2022-11-24T07:16:43.758Z,19.02
2022-11-24T07:18:15.570Z,19.55
2022-11-24T07:19:47.276Z,20.08
2022-11-24T07:21:20.460Z,20.30
2022-11-24T07:22:56.642Z,21.17
2022-11-24T07:24:28.382Z,20.40
2022-11-24T07:26:06.699Z,19.58
2022-11-24T07:27:38.915Z,19.98
2022-11-24T07:29:10.649Z,20.55
2022-11-24T07:30:42.379Z,21.00
2022-11-24T07:32:14.207Z,22.35
2022-11-24T07:33:50.544Z,19.58
2022-11-24T07:35:22.426Z,20.58
2022-11-24T07:36:54.444Z,20.42
2022-11-24T07:38:26.357Z,21.13
2022-11-24T07:39:58.162Z,21.52
2022-11-24T07:41:29.897Z,18.77
2022-11-24T07:43:01.763Z,19.15
2022-11-24T07:44:35.574Z,21.50
2022-11-24T07:46:11.722Z,20.95
2022-11-24T07:47:43.909Z,19.60
2022-11-24T07:49:15.678Z,20.45
2022-11-24T07:50:52.546Z,20.80
2022-11-24T07:52:27.228Z,20.35
2022-11-24T07:53:58.983Z,21.52
2022-11-24T07:55:30.867Z,19.80
2022-11-24T07:57:02.609Z,18.73
2022-11-24T07:58:37.073Z,16.92
2022-11-24T08:00:12.706Z,17.08
2022-11-24T08:01:44.498Z,18.00
2022-11-24T08:03:16.521Z,17.15
2022-11-24T08:04:48.287Z,17.05
2022-11-24T08:06:27.679Z,17.92
2022-11-24T08:08:02.181Z,19.55
2022-11-24T08:09:34.127Z,19.38
2022-11-24T08:11:08.059Z,15.85
2022-11-24T08:12:41.044Z,16.50
2022-11-24T08:14:12.965Z,16.80
2022-11-24T08:15:44.755Z,20.90
2022-11-24T08:17:19.565Z,17.95
2022-11-24T08:18:56.082Z,18.67
2022-11-24T08:20:27.816Z,18.83
2022-11-24T08:21:59.561Z,17.48
2022-11-24T08:23:31.828Z,18.10
2022-11-24T08:25:03.825Z,17.33
2022-11-24T08:26:35.618Z,17.02
2022-11-24T08:28:07.390Z,18.75
2022-11-24T08:29:39.273Z,18.58
2022-11-24T08:31:17.201Z,17.48
2022-11-24T08:32:49.200Z,18.08
2022-11-24T08:34:20.949Z,18.50
2022-11-24T08:35:52.682Z,17.17
2022-11-24T08:37:26.448Z,17.25
2022-11-24T08:39:00.019Z,16.73
2022-11-24T08:40:32.348Z,15.80
2022-11-24T08:42:04.310Z,16.40
2022-11-24T08:43:36.066Z,15.90
2022-11-24T08:45:19.860Z,15.73
2022-11-24T08:46:54.091Z,16.48
2022-11-24T08:48:25.865Z,15.10
2022-11-24T08:49:57.597Z,14.82
2022-11-24T08:51:29.888Z,16.30
2022-11-24T08:53:01.630Z,15.45
2022-11-24T08:54:33.657Z,16.67
2022-11-24T08:56:06.836Z,16.83
2022-11-24T08:57:38.726Z,15.32
2022-11-24T08:59:14.250Z,15.82
2022-11-24T09:00:46.064Z,16.10
2022-11-24T09:02:17.802Z,15.75
2022-11-24T09:03:51.518Z,16.65
2022-11-24T09:05:50.588Z,16.65
2022-11-24T09:07:15.882Z,15.95
2022-11-24T09:08:48.638Z,15.82
2022-11-24T09:10:20.393Z,16.48
2022-11-24T09:11:52.154Z,15.82
2022-11-24T09:13:23.887Z,16.30
2022-11-24T09:14:55.606Z,16.63
2022-11-24T09:16:29.161Z,16.80
2022-11-24T09:18:01.003Z,16.40
2022-11-24T09:19:33.015Z,16.38
2022-11-24T09:21:12.278Z,16.65
2022-11-24T09:22:44.061Z,15.63
2022-11-24T09:24:16.673Z,16.88
2022-11-24T09:25:48.416Z,15.57
2022-11-24T09:27:20.213Z,14.30
2022-11-24T09:28:56.065Z,16.33
2022-11-24T09:30:28.658Z,15.25
2022-11-24T09:32:06.374Z,14.40
2022-11-24T09:33:39.338Z,14.38
2022-11-24T09:35:11.071Z,14.13
2022-11-24T09:36:43.393Z,14.85
2022-11-24T09:38:15.196Z,15.68
2022-11-24T09:39:47.038Z,14.38
2022-11-24T09:41:21.473Z,15.63
2022-11-24T09:43:07.235Z,15.52
2022-11-24T09:44:41.696Z,14.15
2022-11-24T09:46:43.468Z,15.07
2022-11-24T09:48:26.125Z,13.57
2022-11-24T09:50:10.346Z,16.58
2022-11-24T09:51:48.105Z,18.25
2022-11-24T09:53:31.962Z,18.25
2022-11-24T09:55:05.778Z,18.58
2022-11-24T09:56:40.752Z,18.52
2022-11-24T09:58:15.542Z,18.65
2022-11-24T09:59:47.445Z,17.52
2022-11-24T10:01:30.416Z,17.02
2022-11-24T10:03:02.548Z,16.30
2022-11-24T10:04:42.225Z,17.13
2022-11-24T10:06:28.445Z,17.75
2022-11-24T10:08:05.969Z,15.90
2022-11-24T10:10:03.695Z,17.00
2022-11-24T10:11:43.225Z,16.75
2022-11-24T10:13:37.633Z,16.30
2022-11-24T10:15:47.236Z,17.05
2022-11-24T10:17:29.684Z,16.52
2022-11-24T10:19:40.447Z,17.70
2022-11-24T10:21:34.769Z,16.70
2022-11-24T10:23:17.346Z,16.30
2022-11-24T10:24:58.225Z,16.42
2022-11-24T10:26:36.414Z,17.60
2022-11-24T10:28:14.474Z,16.90
2022-11-24T10:29:51.573Z,19.30
2022-11-24T10:31:32.769Z,18.30
2022-11-24T10:33:28.745Z,17.23
2022-11-24T10:35:24.501Z,17.80
2022-11-24T10:37:14.002Z,17.67
2022-11-24T10:39:03.474Z,17.08
2022-11-24T10:40:59.730Z,16.85
2022-11-24T10:42:36.870Z,18.35
2022-11-24T10:44:14.169Z,16.98
2022-11-24T10:45:45.906Z,17.35
2022-11-24T10:47:20.413Z,17.05
2022-11-24T10:48:57.402Z,17.48
2022-11-24T10:50:36.527Z,16.75
2022-11-24T10:52:16.611Z,18.25
2022-11-24T10:53:48.935Z,18.02
2022-11-24T10:55:21.695Z,17.58
2022-11-24T10:56:55.132Z,16.92
2022-11-24T10:58:37.659Z,19.13
2022-11-24T11:00:19.032Z,18.52
2022-11-24T11:01:52.316Z,17.85
2022-11-24T11:03:26.875Z,17.27
2022-11-24T11:05:18.973Z,16.60
2022-11-24T11:06:50.865Z,18.15
2022-11-24T11:08:30.419Z,18.15
2022-11-24T11:10:22.997Z,16.17
2022-11-24T11:11:54.803Z,17.63
2022-11-24T11:13:31.357Z,18.65
2022-11-24T11:15:23.198Z,18.73
2022-11-24T11:16:56.741Z,18.73
2022-11-24T11:18:33.313Z,18.63
2022-11-24T11:20:16.353Z,17.77
2022-11-24T11:21:48.119Z,19.33
2022-11-24T11:23:33.210Z,19.17
2022-11-24T11:25:10.967Z,19.55
2022-11-24T11:26:43.377Z,19.95
2022-11-24T11:28:21.882Z,18.55
2022-11-24T11:34:06.237Z,20.27
2022-11-24T11:35:40.004Z,19.75
2022-11-24T11:37:14.794Z,17.48
2022-11-24T11:38:47.761Z,16.95
2022-11-24T11:40:24.930Z,15.23
2022-11-24T11:42:31.470Z,17.48
2022-11-24T11:44:34.839Z,17.17
2022-11-24T11:46:12.784Z,18.60
2022-11-24T11:47:44.633Z,16.17
2022-11-24T11:49:16.521Z,16.10
2022-11-24T11:53:04.738Z,18.73
2022-11-24T11:55:13.563Z,18.42
2022-11-24T11:56:49.581Z,16.40
2022-11-24T11:58:39.365Z,17.38
2022-11-24T12:00:22.069Z,18.95
2022-11-24T12:02:23.548Z,18.40
2022-11-24T12:04:23.258Z,17.58
2022-11-24T12:06:11.121Z,18.38
2022-11-24T12:08:06.389Z,18.35
2022-11-24T12:10:12.019Z,16.50
2022-11-24T12:12:05.792Z,18.45
2022-11-24T12:13:52.923Z,19.02
2022-11-24T12:15:42.846Z,19.15
2022-11-24T12:17:39.937Z,19.27
2022-11-24T12:19:36.204Z,18.92
2022-11-24T12:21:11.142Z,19.67
2022-11-24T12:22:52.867Z,17.85
2022-11-24T12:24:45.136Z,18.40
2022-11-24T12:26:25.883Z,18.73
2022-11-24T12:28:20.079Z,18.90
2022-11-24T12:30:12.848Z,17.73
2022-11-24T12:32:21.845Z,17.98
2022-11-24T12:34:01.413Z,19.23
2022-11-24T12:35:37.207Z,18.65
2022-11-24T12:37:19.943Z,18.58
2022-11-24T12:39:14.148Z,20.48
2022-11-24T12:41:25.456Z,19.08
2022-11-24T12:43:10.135Z,19.20
2022-11-24T12:44:55.331Z,18.85
2022-11-24T12:47:04.969Z,19.00
2022-11-24T12:48:55.506Z,20.73
2022-11-24T12:50:29.924Z,19.08
2022-11-24T12:52:21.309Z,19.25
2022-11-24T12:53:55.833Z,19.85
2022-11-24T12:55:32.248Z,18.90
2022-11-24T12:57:29.149Z,21.60
2022-11-24T12:59:25.684Z,20.77
2022-11-24T13:01:18.670Z,22.67
2022-11-24T13:03:19.730Z,21.38
2022-11-24T13:05:20.258Z,23.60
2022-11-24T13:06:59.601Z,21.08
2022-11-24T13:08:31.962Z,21.60
2022-11-24T13:10:53.594Z,20.27
2022-11-24T13:12:17.342Z,22.13
2022-11-24T13:14:01.036Z,21.45
2022-11-24T13:18:02.833Z,21.30
2022-11-24T13:19:38.084Z,20.13
2022-11-24T13:21:31.069Z,18.48
2022-11-24T13:23:05.154Z,20.80
2022-11-24T13:24:39.705Z,19.13
2022-11-24T13:26:28.225Z,19.50
2022-11-24T13:28:02.301Z,20.30
2022-11-24T13:29:37.458Z,20.38
2022-11-24T13:31:22.810Z,20.05
2022-11-24T13:33:16.161Z,19.50
2022-11-24T13:34:54.680Z,21.00
2022-11-24T13:36:26.677Z,19.42
2022-11-24T13:37:58.522Z,18.10
2022-11-24T13:39:52.568Z,18.00
2022-11-24T13:41:33.124Z,17.60
2022-11-24T13:43:05.101Z,18.58
2022-11-24T13:44:50.599Z,18.85
2022-11-24T13:47:05.576Z,19.15
2022-11-24T13:48:47.133Z,19.67
2022-11-24T13:50:18.812Z,17.25
2022-11-24T13:52:16.033Z,19.35
2022-11-24T13:53:49.784Z,18.73
2022-11-24T13:55:25.924Z,17.50
2022-11-24T13:57:36.482Z,20.00
2022-11-24T13:59:18.791Z,17.88
2022-11-24T14:01:13.064Z,18.83
2022-11-24T14:02:45.733Z,18.55
2022-11-24T14:04:32.618Z,18.58
2022-11-24T14:06:05.864Z,19.42
2022-11-24T14:07:37.716Z,19.40
2022-11-24T14:09:33.934Z,16.80
2022-11-24T14:11:14.689Z,19.65
2022-11-24T14:12:46.670Z,19.20
2022-11-24T14:14:22.323Z,18.13
2022-11-24T14:16:09.487Z,18.73
2022-11-24T14:17:41.334Z,19.10
2022-11-24T14:19:18.512Z,18.75
2022-11-24T14:20:50.499Z,18.98
2022-11-24T14:22:24.392Z,18.73
2022-11-24T14:24:12.572Z,17.75
2022-11-24T14:25:49.572Z,19.33
2022-11-24T14:27:27.807Z,20.58
2022-11-24T14:29:05.687Z,20.30
2022-11-24T14:30:37.465Z,20.33
2022-11-24T14:32:16.349Z,18.98
2022-11-24T14:33:48.174Z,20.27
2022-11-24T14:35:22.740Z,19.20
2022-11-24T14:36:56.592Z,19.10
2022-11-24T14:38:28.436Z,18.77
2022-11-24T14:40:00.212Z,19.95
2022-11-24T14:41:33.521Z,19.17
2022-11-24T14:43:19.305Z,19.58
2022-11-24T14:44:56.621Z,21.67
2022-11-24T14:46:28.651Z,20.92
2022-11-24T14:48:00.478Z,19.88
2022-11-24T14:49:34.849Z,21.95
2022-11-24T14:51:14.660Z,22.45
2022-11-24T14:52:59.901Z,22.25
2022-11-24T14:54:32.473Z,21.70
2022-11-24T14:56:22.879Z,22.23
2022-11-24T14:57:55.038Z,22.88
2022-11-24T14:59:29.277Z,22.33
2022-11-24T15:01:26.407Z,20.77
2022-11-24T15:03:01.006Z,21.85
2022-11-24T15:05:01.131Z,20.88
2022-11-24T15:06:24.594Z,21.35
2022-11-24T15:08:03.448Z,23.10
2022-11-24T15:09:43.223Z,21.45
2022-11-24T15:11:15.517Z,22.70
2022-11-24T15:12:54.639Z,20.10
2022-11-24T15:14:47.393Z,21.70
2022-11-24T15:16:22.255Z,21.65
2022-11-24T15:17:57.651Z,21.30
2022-11-24T15:19:34.401Z,21.13
2022-11-24T15:21:06.499Z,21.42
2022-11-24T15:22:44.419Z,21.33
2022-11-24T15:24:18.214Z,21.17
2022-11-24T15:25:54.848Z,21.98
2022-11-24T15:27:26.646Z,20.58
2022-11-24T15:28:58.493Z,22.30
2022-11-24T15:30:30.843Z,21.88
2022-11-24T15:32:02.618Z,19.80
2022-11-24T15:33:34.373Z,22.77
2022-11-24T15:35:11.461Z,21.67
2022-11-24T15:36:43.286Z,23.08
2022-11-24T15:38:15.543Z,22.23
2022-11-24T15:39:47.473Z,22.15
2022-11-24T15:41:22.273Z,22.63
2022-11-24T15:42:55.822Z,20.88
2022-11-24T15:44:27.587Z,21.98
2022-11-24T15:46:00.460Z,23.50
2022-11-24T15:47:32.250Z,25.13
2022-11-24T15:49:04.674Z,21.80
2022-11-24T15:50:37.301Z,21.50
2022-11-24T15:52:09.090Z,20.17
2022-11-24T15:53:54.122Z,18.35
2022-11-24T15:55:29.084Z,18.60
2022-11-24T15:57:00.896Z,18.17
2022-11-24T15:58:32.856Z,15.95
2022-11-24T16:00:05.114Z,15.30
2022-11-24T16:01:44.263Z,16.05
2022-11-24T16:03:45.541Z,13.77
2022-11-24T16:05:08.328Z,14.88
2022-11-24T16:06:40.057Z,14.18
2022-11-24T16:08:13.093Z,13.07
2022-11-24T16:09:44.821Z,12.55
2022-11-24T16:11:16.638Z,12.70
2022-11-24T16:12:48.376Z,11.38
2022-11-24T16:14:20.226Z,10.80
2022-11-24T16:15:52.090Z,11.43
2022-11-24T16:17:23.886Z,12.15
2022-11-24T16:18:55.652Z,12.63
2022-11-24T16:20:27.380Z,10.75
2022-11-24T16:21:59.180Z,11.27
2022-11-24T16:23:30.902Z,10.57
2022-11-24T16:25:04.303Z,11.43
2022-11-24T16:26:36.046Z,11.43
2022-11-24T16:28:07.933Z,11.13
2022-11-24T16:29:39.682Z,11.88
2022-11-24T16:31:12.969Z,12.95
2022-11-24T16:32:44.813Z,12.38
2022-11-24T16:34:16.663Z,11.45
2022-11-24T16:35:48.839Z,11.13
2022-11-24T16:37:23.651Z,12.25
2022-11-24T16:38:55.466Z,12.75
2022-11-24T16:40:27.239Z,12.43
2022-11-24T16:41:58.997Z,11.43
2022-11-24T16:43:31.738Z,11.70
2022-11-24T16:45:04.272Z,14.15
2022-11-24T16:46:36.031Z,12.82
2022-11-24T16:48:07.805Z,11.60
2022-11-24T16:49:39.863Z,11.88
2022-11-24T16:51:12.531Z,11.23
2022-11-24T16:52:44.368Z,11.20
2022-11-24T16:54:16.184Z,11.52
2022-11-24T16:55:57.194Z,10.50
2022-11-24T16:57:28.947Z,13.38
2022-11-24T16:59:01.477Z,12.77
2022-11-24T17:00:33.203Z,12.80
2022-11-24T17:02:05.521Z,11.68
2022-11-24T17:03:38.408Z,13.52
2022-11-24T17:05:10.233Z,12.98
2022-11-24T17:06:41.994Z,12.63
2022-11-24T17:08:13.769Z,12.65
2022-11-24T17:09:45.573Z,12.95
2022-11-24T17:11:22.552Z,13.55
2022-11-24T17:12:54.304Z,13.80
2022-11-24T17:14:26.089Z,14.38
2022-11-24T17:15:57.817Z,14.77
2022-11-24T17:17:29.551Z,12.18
2022-11-24T17:19:01.420Z,12.48
2022-11-24T17:20:36.075Z,13.52
2022-11-24T17:22:07.813Z,14.20
2022-11-24T17:23:39.619Z,13.95
2022-11-24T17:25:11.450Z,15.80
2022-11-24T17:26:48.990Z,14.50
2022-11-24T17:28:21.107Z,14.57
2022-11-24T17:29:52.840Z,14.93
2022-11-24T17:31:27.559Z,14.55
2022-11-24T17:32:59.380Z,13.85
2022-11-24T17:34:31.172Z,13.85
2022-11-24T17:36:04.885Z,14.23
2022-11-24T17:37:37.184Z,15.18
2022-11-24T17:39:09.544Z,13.38
2022-11-24T17:40:46.777Z,13.57
2022-11-24T17:42:18.525Z,15.32
2022-11-24T17:43:55.887Z,13.73
2022-11-24T17:45:29.264Z,14.20
2022-11-24T17:47:01.237Z,13.32
2022-11-24T17:48:34.782Z,12.23
2022-11-24T17:50:07.040Z,13.55
2022-11-24T17:51:38.947Z,13.73
2022-11-24T17:53:11.277Z,12.32
2022-11-24T17:54:46.916Z,11.38
2022-11-24T17:56:23.053Z,11.50
2022-11-24T17:57:56.129Z,12.60
2022-11-24T17:59:27.885Z,10.13
2022-11-24T18:00:59.860Z,11.55
2022-11-24T18:02:32.313Z,10.30
2022-11-24T18:04:04.246Z,11.07
2022-11-24T18:05:36.998Z,12.55
2022-11-24T18:07:08.849Z,10.55
2022-11-24T18:08:43.836Z,11.02
2022-11-24T18:10:15.793Z,11.50
2022-11-24T18:11:47.984Z,11.70
2022-11-24T18:13:41.174Z,12.15
2022-11-24T18:15:11.519Z,12.82
2022-11-24T18:16:43.370Z,12.48
2022-11-24T18:18:15.201Z,13.88
2022-11-24T18:19:46.942Z,12.20
2022-11-24T18:21:18.766Z,12.48
2022-11-24T18:23:05.058Z,14.40
2022-11-24T18:24:37.741Z,15.07
2022-11-24T18:26:13.126Z,15.75
2022-11-24T18:27:44.964Z,17.58
2022-11-24T18:29:16.689Z,16.35
2022-11-24T18:30:49.116Z,17.60
2022-11-24T18:32:21.169Z,15.65
2022-11-24T18:33:53.027Z,15.05
2022-11-24T18:35:24.784Z,15.88
2022-11-24T18:36:56.512Z,21.58
2022-11-24T18:38:28.739Z,17.50
2022-11-24T18:40:00.509Z,17.00
2022-11-24T18:41:32.543Z,15.95
2022-11-24T18:43:04.565Z,17.30
2022-11-24T18:44:37.126Z,16.80
2022-11-24T18:46:14.482Z,17.85
2022-11-24T18:47:46.273Z,17.27
2022-11-24T18:49:18.025Z,14.82
2022-11-24T18:50:54.202Z,17.15
2022-11-24T18:52:25.932Z,16.70
2022-11-24T18:54:02.250Z,16.90
2022-11-24T18:55:34.009Z,17.70
2022-11-24T18:57:05.757Z,15.20
2022-11-24T18:58:37.526Z,15.25
2022-11-24T19:00:10.528Z,15.45
2022-11-24T19:01:42.460Z,15.23
2022-11-24T19:03:14.296Z,17.15
2022-11-24T19:04:46.147Z,17.02
2022-11-24T19:06:33.209Z,15.63
2022-11-24T19:08:05.181Z,17.17
2022-11-24T19:09:37.956Z,16.13
2022-11-24T19:11:17.593Z,16.45
2022-11-24T19:12:49.480Z,18.10
2022-11-24T19:14:21.309Z,18.45
2022-11-24T19:15:53.211Z,16.90
2022-11-24T19:17:24.936Z,15.10
2022-11-24T19:19:00.121Z,15.05
2022-11-24T19:20:34.014Z,15.30
2022-11-24T19:22:05.927Z,16.40
2022-11-24T19:23:37.809Z,16.90
2022-11-24T19:25:09.680Z,16.85
2022-11-24T19:26:41.469Z,16.33
2022-11-24T19:28:13.334Z,14.90
2022-11-24T19:29:46.637Z,15.52
2022-11-24T19:31:19.216Z,14.02
2022-11-24T19:32:51.879Z,14.15
2022-11-24T19:34:23.664Z,15.40
2022-11-24T19:36:04.546Z,15.27
2022-11-24T19:37:37.113Z,14.50
2022-11-24T19:39:16.666Z,14.88
2022-11-24T19:40:48.444Z,15.60
2022-11-24T19:42:20.201Z,11.88
2022-11-24T19:43:53.606Z,12.23
2022-11-24T19:45:25.593Z,13.65
2022-11-24T19:46:57.423Z,12.65
2022-11-24T19:48:36.726Z,11.85
2022-11-24T19:50:10.486Z,13.05
2022-11-24T19:51:42.473Z,11.27
2022-11-24T19:53:14.219Z,11.60
2022-11-24T19:54:46.612Z,11.05
2022-11-24T19:56:27.120Z,10.77
2022-11-24T19:57:58.874Z,11.67
2022-11-24T19:59:30.685Z,11.70
2022-11-24T20:01:29.935Z,13.50
2022-11-24T20:03:02.316Z,13.18
2022-11-24T20:04:38.366Z,16.13
2022-11-24T20:06:11.570Z,16.42
2022-11-24T20:07:43.399Z,15.30
2022-11-24T20:09:17.832Z,14.27
2022-11-24T20:10:49.620Z,15.25
2022-11-24T20:12:21.368Z,14.77
2022-11-24T20:13:53.182Z,16.85
2022-11-24T20:15:24.957Z,18.42
2022-11-24T20:16:56.810Z,17.35
2022-11-24T20:18:30.618Z,16.65
2022-11-24T20:20:02.353Z,15.50
2022-11-24T20:21:36.404Z,16.80
2022-11-24T20:23:08.211Z,14.02
2022-11-24T20:24:39.946Z,12.75
2022-11-24T20:26:19.746Z,13.07
2022-11-24T20:27:51.672Z,12.35
2022-11-24T20:29:24.881Z,12.93
2022-11-24T20:31:00.301Z,11.90
2022-11-24T20:32:32.097Z,13.27
2022-11-24T20:34:05.525Z,12.77
2022-11-24T20:35:37.265Z,14.50
2022-11-24T20:37:13.429Z,14.02
2022-11-24T20:38:46.839Z,12.43
2022-11-24T20:40:20.229Z,11.77
2022-11-24T20:41:53.303Z,12.45
2022-11-24T20:43:25.065Z,12.38
2022-11-24T20:45:00.811Z,12.75